KAPN/APN METAR and TAF weather

Enter ICAO airport designator
Station Type Date Time Source
KAPN METAR 2022/11/27 08:54 UTC NOAA

KAPN 270854Z AUTO 22004KT 10SM CLR 05/M03 A2965 RMK AO2 SLP043 T00501033 58013


Station Type Date Time Source
KAPN Decoded METAR 2022/11/27 08:54 UTC NOAA

ALPENA COUNTY REGIONAL AIRPORT, MI, United States (KAPN) 45-05N 083-34W 210M
Nov 27, 2022 - 03:54 AM EST / 2022.11.27 0854 UTC
Wind: from the SW (220 degrees) at 5 MPH (4 KT):0
Visibility: 10 mile(s):0
Sky conditions: clear
Temperature: 41.0 F (5.0 C)
Dew Point: 26.1 F (-3.3 C)
Relative Humidity: 54%
Pressure (altimeter): 29.65 in. Hg (1004 hPa)
Pressure tendency: 0.04 inches (1.3 hPa) lower than three hours ago
ob: KAPN 270854Z AUTO 22004KT 10SM CLR 05/M03 A2965 RMK AO2 SLP043 T00501033 58013
cycle: 9

Station Type Date Time Source
KAPN TAF 2022/11/27 06:22 UTC NOAA

TAF KAPN 270520Z 2706/2806 24006KT P6SM SCT240
FM270900 VRB03KT P6SM BKN210
FM271700 02007KT 6SM -SHRA BR OVC016
FM272100 01009G17KT 5SM -SHRA BR OVC009
FM280000 36009G19KT P6SM OVC011

Example: see airport list